< < Back
Terminal Aerodrome Forecast


Current Version              Previous Versions:   1  2  3  4  5  6  7  8  9  

Terminal Aerodrome Forecast

677
FTUS44 KMOB 201300 AAB
TAFPNS
TAF AMD
KPNS 201323Z 2013/2112 01006KT 4SM -RA BR BKN006 BKN012 OVC028
     FM201600 03010KT 6SM -RA BR OVC015
     FM202100 03007KT P6SM OVC025=



Latest METAR

401
SAUS70 KWBC 210000 RRA
MTRPNS
METAR KPNS 202353Z 35007KT 10SM FEW013 BKN070 11/09 A3010 RMK AO2 SLP197
60001 T01060094 10111 20100 53010


USA.gov is the U.S. government's official web portal to all federal, state and local government web resources and services.